Time,TemperatureF,DewpointF,PressureIn,WindDirection,WindDirectionDegrees,WindSpeedMPH,WindSpeedGustMPH,Humidity,HourlyPrecipIn,Conditions,Clouds,dailyrainin,SolarRadiationWatts/m^2,SoftwareType,DateUTC
2013-11-18 00:02:00,45.7,42.6,30.09,WNW,285,0.0,2.0,88,0.00,,,0.00,0.0,meteohub,2013-11-18 08:02:00,
2013-11-18 00:07:00,45.7,42.6,30.09,WNW,285,0.0,2.0,88,0.00,,,0.00,0.0,meteohub,2013-11-18 08:07:00,
2013-11-18 00:12:00,45.7,42.6,30.09,WNW,285,0.0,2.0,88,0.00,,,0.00,0.0,meteohub,2013-11-18 08:12:00,
2013-11-18 00:17:00,45.7,42.6,30.09,WNW,285,0.0,1.0,88,0.00,,,0.00,0.0,meteohub,2013-11-18 08:17:00,
2013-11-18 00:22:00,45.7,42.6,30.09,WNW,285,0.0,0.0,88,0.00,,,0.00,0.0,meteohub,2013-11-18 08:22:00,
2013-11-18 00:27:00,45.5,42.4,30.09,WNW,285,0.0,0.0,88,0.00,,,0.00,0.0,meteohub,2013-11-18 08:27:00,
2013-11-18 00:32:00,45.5,42.1,30.09,WNW,285,0.0,0.0,87,0.00,,,0.00,0.0,meteohub,2013-11-18 08:32:00,
2013-11-18 00:37:00,45.3,41.9,30.09,WNW,285,0.0,0.0,87,0.00,,,0.00,0.0,meteohub,2013-11-18 08:37:00,
2013-11-18 00:42:00,45.1,41.7,30.09,WNW,285,0.0,0.0,87,0.00,,,0.00,0.0,meteohub,2013-11-18 08:42:00,
2013-11-18 00:47:00,45.0,41.2,30.09,WNW,285,0.0,0.0,86,0.00,,,0.00,0.0,meteohub,2013-11-18 08:47:00,
2013-11-18 00:52:00,44.8,41.0,30.09,WNW,285,0.0,0.0,86,0.00,,,0.00,0.0,meteohub,2013-11-18 08:52:00,
2013-11-18 00:57:00,44.6,40.8,30.09,WNW,285,2.0,2.0,86,0.00,,,0.00,0.0,meteohub,2013-11-18 08:57:00,
2013-11-18 01:02:00,44.6,40.6,30.09,WNW,285,0.0,2.0,86,0.00,,,0.00,0.0,meteohub,2013-11-18 09:02:00,
2013-11-18 01:07:00,44.4,40.5,30.09,WNW,285,0.0,2.0,86,0.00,,,0.00,0.0,meteohub,2013-11-18 09:07:00,
2013-11-18 01:12:00,44.4,40.8,30.09,WNW,285,0.0,2.0,87,0.00,,,0.00,0.0,meteohub,2013-11-18 09:12:00,
2013-11-18 01:17:00,44.2,40.6,30.09,WNW,285,0.0,2.0,87,0.00,,,0.00,0.0,meteohub,2013-11-18 09:17:00,
2013-11-18 01:22:00,44.1,40.5,30.08,WNW,285,0.0,1.0,87,0.00,,,0.00,0.0,meteohub,2013-11-18 09:22:00,
2013-11-18 01:27:00,43.9,40.6,30.08,WNW,285,1.0,1.0,88,0.00,,,0.00,0.0,meteohub,2013-11-18 09:27:00,
2013-11-18 01:32:00,43.9,40.6,30.08,WNW,285,0.0,3.0,88,0.00,,,0.00,0.0,meteohub,2013-11-18 09:32:00,
2013-11-18 01:37:00,43.9,40.6,30.09,WNW,285,0.0,3.0,88,0.00,,,0.00,0.0,meteohub,2013-11-18 09:37:00,
2013-11-18 01:42:00,43.7,40.5,30.09,WNW,285,0.0,3.0,88,0.00,,,0.00,0.0,meteohub,2013-11-18 09:42:00,
2013-11-18 01:47:00,43.5,40.3,30.09,WNW,285,0.0,1.0,88,0.00,,,0.00,0.0,meteohub,2013-11-18 09:47:00,
2013-11-18 01:52:00,43.3,40.3,30.08,WNW,285,0.0,1.0,88,0.00,,,0.00,0.0,meteohub,2013-11-18 09:52:00,
2013-11-18 01:57:00,43.3,40.3,30.09,WNW,285,1.0,3.0,89,0.00,,,0.00,0.0,meteohub,2013-11-18 09:57:00,
2013-11-18 02:02:00,43.2,40.3,30.09,WNW,285,1.0,3.0,89,0.00,,,0.00,0.0,meteohub,2013-11-18 10:02:00,
2013-11-18 02:07:00,43.2,40.3,30.09,WNW,285,0.0,3.0,89,0.00,,,0.00,0.0,meteohub,2013-11-18 10:07:00,
2013-11-18 02:12:00,43.2,40.3,30.09,WNW,285,0.0,2.0,89,0.00,,,0.00,0.0,meteohub,2013-11-18 10:12:00,
2013-11-18 02:17:00,43.2,40.3,30.09,WNW,285,0.0,2.0,89,0.00,,,0.00,0.0,meteohub,2013-11-18 10:17:00,
2013-11-18 02:22:00,43.2,40.5,30.09,WNW,285,0.0,2.0,90,0.00,,,0.00,0.0,meteohub,2013-11-18 10:22:00,
2013-11-18 02:27:00,43.0,40.3,30.09,WNW,285,0.0,2.0,90,0.00,,,0.00,0.0,meteohub,2013-11-18 10:27:00,
2013-11-18 02:32:00,43.0,40.3,30.09,WNW,285,1.0,1.0,90,0.00,,,0.00,0.0,meteohub,2013-11-18 10:32:00,
2013-11-18 02:37:00,43.0,40.3,30.09,WNW,285,0.0,1.0,90,0.00,,,0.00,0.0,meteohub,2013-11-18 10:37:00,
2013-11-18 02:42:00,43.2,40.5,30.09,WNW,285,0.0,2.0,90,0.00,,,0.00,0.0,meteohub,2013-11-18 10:42:00,
2013-11-18 02:47:00,43.2,40.6,30.09,WNW,285,0.0,2.0,91,0.00,,,0.00,0.0,meteohub,2013-11-18 10:47:00,
2013-11-18 02:52:00,43.3,40.8,30.09,WNW,285,0.0,2.0,91,0.00,,,0.00,0.0,meteohub,2013-11-18 10:52:00,
2013-11-18 02:57:00,43.2,40.6,30.09,WNW,285,0.0,1.0,91,0.00,,,0.00,0.0,meteohub,2013-11-18 10:57:00,
2013-11-18 03:02:00,43.2,40.6,30.09,WNW,285,0.0,1.0,91,0.00,,,0.00,0.0,meteohub,2013-11-18 11:02:00,
2013-11-18 03:07:00,43.2,40.6,30.09,WNW,285,0.0,1.0,91,0.00,,,0.00,0.0,meteohub,2013-11-18 11:07:00,
2013-11-18 03:12:00,43.3,40.8,30.09,WNW,285,0.0,1.0,91,0.00,,,0.00,0.0,meteohub,2013-11-18 11:12:00,
2013-11-18 03:17:00,43.5,41.0,30.09,WNW,285,0.0,1.0,91,0.00,,,0.00,0.0,meteohub,2013-11-18 11:17:00,
2013-11-18 03:22:00,43.3,40.8,30.09,WNW,285,0.0,2.0,91,0.00,,,0.00,0.0,meteohub,2013-11-18 11:22:00,
2013-11-18 03:27:00,43.2,40.6,30.09,WNW,285,0.0,2.0,91,0.00,,,0.00,0.0,meteohub,2013-11-18 11:27:00,
2013-11-18 03:32:00,43.2,40.6,30.09,WNW,285,0.0,2.0,91,0.00,,,0.00,0.0,meteohub,2013-11-18 11:32:00,
2013-11-18 03:37:00,43.0,40.3,30.09,WNW,285,1.0,1.0,90,0.00,,,0.00,0.0,meteohub,2013-11-18 11:37:00,
2013-11-18 03:42:00,42.8,40.3,30.09,WNW,285,1.0,3.0,90,0.00,,,0.00,0.0,meteohub,2013-11-18 11:42:00,
2013-11-18 03:47:00,42.6,40.3,30.09,WNW,285,0.0,3.0,91,0.00,,,0.00,0.0,meteohub,2013-11-18 11:47:00,
2013-11-18 03:52:00,42.6,40.3,30.09,WNW,285,0.0,3.0,91,0.00,,,0.00,0.0,meteohub,2013-11-18 11:52:00,
2013-11-18 03:57:00,42.6,40.3,30.09,WNW,285,0.0,1.0,91,0.00,,,0.00,0.0,meteohub,2013-11-18 11:57:00,
2013-11-18 04:02:00,42.6,40.3,30.09,WNW,285,0.0,1.0,91,0.00,,,0.00,0.0,meteohub,2013-11-18 12:02:00,
2013-11-18 04:07:00,42.4,40.3,30.10,WNW,285,0.0,2.0,91,0.00,,,0.00,0.0,meteohub,2013-11-18 12:07:00,
2013-11-18 04:12:00,42.3,39.7,30.10,WNW,285,1.0,3.0,90,0.00,,,0.00,0.0,meteohub,2013-11-18 12:12:00,
2013-11-18 04:17:00,42.1,39.6,30.10,WNW,285,1.0,3.0,90,0.00,,,0.00,0.0,meteohub,2013-11-18 12:17:00,
2013-11-18 04:22:00,41.9,39.4,30.11,WNW,285,0.0,3.0,90,0.00,,,0.00,0.0,meteohub,2013-11-18 12:22:00,
2013-11-18 04:27:00,41.7,39.2,30.11,WNW,285,1.0,3.0,90,0.00,,,0.00,0.0,meteohub,2013-11-18 12:27:00,
2013-11-18 04:32:00,41.7,39.6,30.11,WNW,285,1.0,3.0,91,0.00,,,0.00,0.0,meteohub,2013-11-18 12:32:00,
2013-11-18 04:37:00,41.7,39.6,30.12,WNW,285,1.0,3.0,91,0.00,,,0.00,0.0,meteohub,2013-11-18 12:37:00,
2013-11-18 04:42:00,41.7,39.6,30.12,WNW,285,0.0,3.0,91,0.00,,,0.00,0.0,meteohub,2013-11-18 12:42:00,
2013-11-18 04:47:00,41.9,39.7,30.11,WNW,285,0.0,2.0,91,0.00,,,0.00,0.0,meteohub,2013-11-18 12:47:00,
2013-11-18 04:52:00,41.9,39.7,30.11,WNW,285,1.0,2.0,91,0.00,,,0.00,0.0,meteohub,2013-11-18 12:52:00,
2013-11-18 04:57:00,41.7,39.6,30.11,WNW,285,2.0,2.0,91,0.00,,,0.00,0.0,meteohub,2013-11-18 12:57:00,
2013-11-18 05:02:00,41.7,39.6,30.11,WNW,285,0.0,3.0,91,0.00,,,0.00,0.0,meteohub,2013-11-18 13:02:00,
2013-11-18 05:07:00,41.5,39.4,30.12,WNW,285,0.0,3.0,91,0.00,,,0.00,0.0,meteohub,2013-11-18 13:07:00,
2013-11-18 05:12:00,41.4,39.2,30.12,WNW,285,0.0,2.0,91,0.00,,,0.00,0.0,meteohub,2013-11-18 13:12:00,
2013-11-18 05:17:00,41.2,39.0,30.12,WNW,285,0.0,1.0,91,0.00,,,0.00,0.0,meteohub,2013-11-18 13:17:00,
2013-11-18 05:22:00,41.0,38.8,30.12,WNW,285,0.0,1.0,91,0.00,,,0.00,0.0,meteohub,2013-11-18 13:22:00,
2013-11-18 05:27:00,40.8,38.7,30.11,WNW,285,0.0,1.0,91,0.00,,,0.00,0.0,meteohub,2013-11-18 13:27:00,
2013-11-18 05:32:00,40.8,38.7,30.11,WNW,285,1.0,2.0,91,0.00,,,0.00,0.0,meteohub,2013-11-18 13:32:00,
2013-11-18 05:37:00,41.0,38.8,30.12,WNW,285,0.0,2.0,91,0.00,,,0.00,0.0,meteohub,2013-11-18 13:37:00,
2013-11-18 05:42:00,40.8,38.7,30.12,WNW,285,0.0,2.0,91,0.00,,,0.00,0.0,meteohub,2013-11-18 13:42:00,
2013-11-18 05:47:00,40.8,38.7,30.11,WNW,285,0.0,2.0,91,0.00,,,0.00,0.0,meteohub,2013-11-18 13:47:00,
2013-11-18 05:52:00,40.8,38.8,30.11,WNW,285,0.0,1.0,92,0.00,,,0.00,0.0,meteohub,2013-11-18 13:52:00,
2013-11-18 05:57:00,40.8,38.8,30.12,WNW,285,1.0,2.0,92,0.00,,,0.00,0.0,meteohub,2013-11-18 13:57:00,
2013-11-18 06:02:00,40.8,38.8,30.12,WNW,285,0.0,2.0,92,0.00,,,0.00,0.0,meteohub,2013-11-18 14:02:00,
2013-11-18 06:07:00,40.8,38.8,30.12,WNW,285,0.0,2.0,92,0.00,,,0.00,0.0,meteohub,2013-11-18 14:07:00,
2013-11-18 06:12:00,40.8,38.8,30.12,WNW,285,0.0,2.0,92,0.00,,,0.00,0.0,meteohub,2013-11-18 14:12:00,
2013-11-18 06:17:00,40.8,38.8,30.12,WNW,285,0.0,2.0,92,0.00,,,0.00,0.0,meteohub,2013-11-18 14:17:00,
2013-11-18 06:22:00,40.8,38.8,30.12,WNW,285,0.0,0.0,92,0.00,,,0.00,0.0,meteohub,2013-11-18 14:22:00,
2013-11-18 06:27:00,40.6,38.7,30.12,WNW,285,0.0,1.0,92,0.00,,,0.00,0.0,meteohub,2013-11-18 14:27:00,
2013-11-18 06:32:00,40.6,38.7,30.12,WNW,285,1.0,1.0,92,0.00,,,0.00,0.0,meteohub,2013-11-18 14:32:00,
2013-11-18 06:37:00,40.6,38.7,30.12,WNW,285,0.0,3.0,92,0.00,,,0.00,0.0,meteohub,2013-11-18 14:37:00,
2013-11-18 06:42:00,40.8,38.8,30.12,WNW,285,1.0,4.0,92,0.00,,,0.00,0.0,meteohub,2013-11-18 14:42:00,
2013-11-18 06:47:00,41.0,39.0,30.12,WNW,285,0.0,4.0,92,0.00,,,0.00,5.0,meteohub,2013-11-18 14:47:00,
2013-11-18 06:52:00,41.0,39.0,30.12,WNW,285,0.0,4.0,92,0.00,,,0.00,7.0,meteohub,2013-11-18 14:52:00,
2013-11-18 06:57:00,41.0,39.0,30.12,WNW,285,0.0,2.0,92,0.00,,,0.00,9.0,meteohub,2013-11-18 14:57:00,
2013-11-18 07:02:00,41.0,39.0,30.12,WNW,285,0.0,1.0,92,0.00,,,0.00,16.0,meteohub,2013-11-18 15:02:00,
2013-11-18 07:07:00,40.8,38.8,30.12,WNW,285,0.0,1.0,92,0.00,,,0.00,23.0,meteohub,2013-11-18 15:07:00,
2013-11-18 07:12:00,40.8,38.8,30.12,WNW,285,0.0,0.0,92,0.00,,,0.00,30.0,meteohub,2013-11-18 15:12:00,
2013-11-18 07:17:00,40.8,38.8,30.12,WNW,285,0.0,0.0,92,0.00,,,0.00,35.0,meteohub,2013-11-18 15:17:00,
2013-11-18 07:22:00,40.8,38.8,30.12,WNW,285,0.0,0.0,92,0.00,,,0.00,44.0,meteohub,2013-11-18 15:22:00,
2013-11-18 07:27:00,40.8,39.2,30.12,WNW,285,0.0,0.0,93,0.00,,,0.00,51.0,meteohub,2013-11-18 15:27:00,
2013-11-18 07:32:00,41.0,39.4,30.13,WNW,285,0.0,0.0,93,0.00,,,0.00,51.0,meteohub,2013-11-18 15:32:00,
2013-11-18 07:37:00,41.2,39.6,30.13,WNW,285,0.0,0.0,93,0.00,,,0.00,77.0,meteohub,2013-11-18 15:37:00,
2013-11-18 07:42:00,41.7,40.3,30.12,WNW,285,0.0,0.0,94,0.00,,,0.00,90.0,meteohub,2013-11-18 15:42:00,
2013-11-18 07:47:00,42.1,40.5,30.13,WNW,285,1.0,0.0,94,0.00,,,0.00,83.0,meteohub,2013-11-18 15:47:00,
2013-11-18 07:52:00,42.8,41.2,30.14,West,259,1.0,3.0,94,0.00,,,0.00,72.0,meteohub,2013-11-18 15:52:00,
2013-11-18 07:57:00,43.5,41.9,30.13,West,259,0.0,3.0,94,0.00,,,0.00,97.0,meteohub,2013-11-18 15:57:00,
2013-11-18 08:02:00,44.1,42.8,30.14,West,259,2.0,3.0,95,0.00,,,0.00,97.0,meteohub,2013-11-18 16:02:00,
2013-11-18 08:07:00,44.4,42.8,30.14,West,259,0.0,3.0,94,0.00,,,0.00,93.0,meteohub,2013-11-18 16:07:00,
2013-11-18 08:12:00,44.6,43.0,30.14,West,260,1.0,2.0,94,0.00,,,0.00,97.0,meteohub,2013-11-18 16:12:00,
2013-11-18 08:17:00,44.6,43.2,30.13,West,263,0.0,3.0,94,0.00,,,0.00,113.0,meteohub,2013-11-18 16:17:00,
2013-11-18 08:22:00,45.0,43.5,30.13,West,269,2.0,3.0,94,0.00,,,0.00,114.0,meteohub,2013-11-18 16:22:00,
2013-11-18 08:27:00,45.5,44.4,30.13,North,355,1.0,5.0,95,0.00,,,0.00,123.0,meteohub,2013-11-18 16:27:00,
2013-11-18 08:32:00,46.0,44.8,30.13,North,355,2.0,5.0,95,0.00,,,0.00,127.0,meteohub,2013-11-18 16:32:00,
2013-11-18 08:37:00,46.2,45.0,30.13,North,355,1.0,5.0,95,0.00,,,0.00,149.0,meteohub,2013-11-18 16:37:00,
2013-11-18 08:43:00,46.6,45.0,30.13,North,355,0.0,4.0,94,0.00,,,0.00,188.0,meteohub,2013-11-18 16:43:00,
2013-11-18 08:48:00,46.9,45.7,30.12,North,355,0.0,3.0,95,0.00,,,0.00,197.0,meteohub,2013-11-18 16:48:00,
2013-11-18 08:53:00,47.3,45.9,30.12,North,0,0.0,3.0,95,0.00,,,0.00,160.0,meteohub,2013-11-18 16:53:00,
2013-11-18 08:58:00,47.8,46.4,30.12,NE,44,3.0,4.0,95,0.00,,,0.00,206.0,meteohub,2013-11-18 16:58:00,
2013-11-18 09:03:00,48.7,47.3,30.12,NE,47,0.0,4.0,95,0.00,,,0.00,232.0,meteohub,2013-11-18 17:03:00,
2013-11-18 09:08:00,49.1,47.8,30.12,SE,124,2.0,5.0,95,0.00,,,0.00,206.0,meteohub,2013-11-18 17:08:00,
2013-11-18 09:13:00,50.0,48.7,30.12,SE,140,5.0,5.0,95,0.00,,,0.00,176.0,meteohub,2013-11-18 17:13:00,
2013-11-18 09:18:00,50.5,48.7,30.12,SE,131,3.0,5.0,93,0.00,,,0.00,176.0,meteohub,2013-11-18 17:18:00,
2013-11-18 09:23:00,51.1,48.9,30.12,SE,131,3.0,7.0,92,0.00,,,0.00,178.0,meteohub,2013-11-18 17:23:00,
2013-11-18 09:28:00,51.6,48.7,30.12,SSE,161,1.0,7.0,89,0.00,,,0.00,204.0,meteohub,2013-11-18 17:28:00,
2013-11-18 09:33:00,51.8,48.2,30.13,SE,144,2.0,7.0,87,0.00,,,0.00,214.0,meteohub,2013-11-18 17:33:00,
2013-11-18 09:39:00,52.2,48.0,30.13,SSE,159,2.0,6.0,85,0.00,,,0.00,232.0,meteohub,2013-11-18 17:39:00,
2013-11-18 09:44:00,52.3,47.5,30.13,SSE,149,1.0,6.0,83,0.00,,,0.00,207.0,meteohub,2013-11-18 17:44:00,
2013-11-18 09:49:00,52.2,47.1,30.13,SSE,158,0.0,6.0,82,0.00,,,0.00,172.0,meteohub,2013-11-18 17:49:00,
2013-11-18 09:54:00,52.2,47.1,30.13,SSW,207,2.0,6.0,82,0.00,,,0.00,178.0,meteohub,2013-11-18 17:54:00,
2013-11-18 09:59:00,52.2,46.8,30.13,SW,231,3.0,5.0,81,0.00,,,0.00,178.0,meteohub,2013-11-18 17:59:00,
2013-11-18 10:04:00,52.2,46.8,30.13,SW,217,2.0,6.0,81,0.00,,,0.00,178.0,meteohub,2013-11-18 18:04:00,
2013-11-18 10:09:00,52.2,47.1,30.14,SW,217,0.0,6.0,82,0.00,,,0.00,183.0,meteohub,2013-11-18 18:09:00,
2013-11-18 10:14:00,52.3,46.9,30.14,WSW,238,1.0,6.0,81,0.00,,,0.00,199.0,meteohub,2013-11-18 18:14:00,
2013-11-18 10:19:00,52.5,47.1,30.14,WSW,238,0.0,5.0,81,0.00,,,0.00,251.0,meteohub,2013-11-18 18:19:00,
2013-11-18 10:24:00,53.1,47.3,30.13,WSW,238,0.0,5.0,80,0.00,,,0.00,413.0,meteohub,2013-11-18 18:24:00,
2013-11-18 10:29:00,53.8,47.8,30.14,West,262,0.0,5.0,79,0.00,,,0.00,394.0,meteohub,2013-11-18 18:29:00,
2013-11-18 10:35:00,54.9,48.2,30.13,West,264,0.0,3.0,77,0.00,,,0.00,454.0,meteohub,2013-11-18 18:35:00,
2013-11-18 10:40:00,55.6,48.6,30.14,West,273,6.0,6.0,76,0.00,,,0.00,373.0,meteohub,2013-11-18 18:40:00,
2013-11-18 10:45:00,55.9,48.6,30.13,West,260,3.0,8.0,75,0.00,,,0.00,297.0,meteohub,2013-11-18 18:45:00,
2013-11-18 10:50:00,56.5,48.7,30.13,WSW,244,2.0,8.0,74,0.00,,,0.00,348.0,meteohub,2013-11-18 18:50:00,
2013-11-18 10:55:00,56.7,48.2,30.13,WSW,257,1.0,8.0,72,0.00,,,0.00,278.0,meteohub,2013-11-18 18:55:00,
2013-11-18 11:00:00,56.8,48.4,30.13,West,273,2.0,7.0,72,0.00,,,0.00,279.0,meteohub,2013-11-18 19:00:00,
2013-11-18 11:05:00,57.0,47.3,30.13,SW,236,2.0,7.0,69,0.00,,,0.00,265.0,meteohub,2013-11-18 19:05:00,
2013-11-18 11:10:00,57.2,47.5,30.13,SW,217,5.0,7.0,69,0.00,,,0.00,241.0,meteohub,2013-11-18 19:10:00,
2013-11-18 11:15:00,57.4,47.7,30.13,SW,215,1.0,6.0,69,0.00,,,0.00,244.0,meteohub,2013-11-18 19:15:00,
2013-11-18 11:20:00,57.4,47.7,30.13,SSW,209,5.0,7.0,69,0.00,,,0.00,327.0,meteohub,2013-11-18 19:20:00,
2013-11-18 11:25:00,57.6,48.0,30.12,SSW,213,6.0,7.0,69,0.00,,,0.00,332.0,meteohub,2013-11-18 19:25:00,
2013-11-18 11:30:00,57.7,47.8,30.12,SW,219,1.0,7.0,68,0.00,,,0.00,327.0,meteohub,2013-11-18 19:30:00,
2013-11-18 11:35:00,57.7,47.8,30.12,SW,234,3.0,7.0,68,0.00,,,0.00,415.0,meteohub,2013-11-18 19:35:00,
2013-11-18 11:41:00,58.1,47.8,30.13,SW,234,7.0,7.0,67,0.00,,,0.00,262.0,meteohub,2013-11-18 19:41:00,
2013-11-18 11:46:00,57.9,47.1,30.13,SW,225,5.0,9.0,66,0.00,,,0.00,294.0,meteohub,2013-11-18 19:46:00,
2013-11-18 11:51:00,57.9,46.8,30.12,SW,222,2.0,9.0,65,0.00,,,0.00,420.0,meteohub,2013-11-18 19:51:00,
2013-11-18 11:56:00,58.3,47.1,30.12,South,191,4.0,9.0,65,0.00,,,0.00,385.0,meteohub,2013-11-18 19:56:00,
2013-11-18 12:01:00,58.5,46.6,30.11,WSW,257,1.0,8.0,63,0.00,,,0.00,323.0,meteohub,2013-11-18 20:01:00,
2013-11-18 12:06:00,58.5,46.6,30.11,SSW,211,4.0,7.0,63,0.00,,,0.00,380.0,meteohub,2013-11-18 20:06:00,
2013-11-18 12:11:00,58.5,46.6,30.11,South,190,2.0,7.0,63,0.00,,,0.00,320.0,meteohub,2013-11-18 20:11:00,
2013-11-18 12:16:00,58.5,46.6,30.10,WSW,237,0.0,8.0,63,0.00,,,0.00,352.0,meteohub,2013-11-18 20:16:00,
2013-11-18 12:21:00,58.8,46.0,30.10,SW,233,3.0,8.0,61,0.00,,,0.00,338.0,meteohub,2013-11-18 20:21:00,
2013-11-18 12:26:00,58.6,45.9,30.10,SW,215,2.0,7.0,61,0.00,,,0.00,476.0,meteohub,2013-11-18 20:26:00,
2013-11-18 12:31:00,59.0,46.2,30.10,SW,220,4.0,6.0,61,0.00,,,0.00,387.0,meteohub,2013-11-18 20:31:00,
2013-11-18 12:37:00,59.2,45.5,30.09,SW,219,2.0,6.0,59,0.00,,,0.00,309.0,meteohub,2013-11-18 20:37:00,
2013-11-18 12:42:00,59.0,45.7,30.09,SW,222,3.0,6.0,60,0.00,,,0.00,285.0,meteohub,2013-11-18 20:42:00,
2013-11-18 12:47:00,59.0,46.2,30.09,SW,215,3.0,6.0,61,0.00,,,0.00,278.0,meteohub,2013-11-18 20:47:00,
2013-11-18 12:52:00,59.2,45.9,30.10,SSW,192,5.0,7.0,60,0.00,,,0.00,503.0,meteohub,2013-11-18 20:52:00,
2013-11-18 12:57:00,59.4,45.7,30.09,SSW,196,6.0,9.0,59,0.00,,,0.00,464.0,meteohub,2013-11-18 20:57:00,
2013-11-18 13:02:00,59.5,45.9,30.09,South,180,2.0,9.0,59,0.00,,,0.00,262.0,meteohub,2013-11-18 21:02:00,
2013-11-18 13:07:00,59.5,45.9,30.09,SSW,192,5.0,9.0,59,0.00,,,0.00,239.0,meteohub,2013-11-18 21:07:00,
2013-11-18 13:12:00,59.4,45.7,30.09,SSW,194,0.0,8.0,59,0.00,,,0.00,241.0,meteohub,2013-11-18 21:12:00,
2013-11-18 13:17:00,59.4,46.0,30.08,SW,225,5.0,7.0,60,0.00,,,0.00,316.0,meteohub,2013-11-18 21:17:00,
2013-11-18 13:22:00,59.4,46.0,30.08,SW,231,5.0,8.0,60,0.00,,,0.00,362.0,meteohub,2013-11-18 21:22:00,
2013-11-18 13:27:00,59.5,46.2,30.08,West,260,0.0,8.0,60,0.00,,,0.00,214.0,meteohub,2013-11-18 21:27:00,
2013-11-18 13:32:00,59.7,46.4,30.08,SW,227,0.0,7.0,60,0.00,,,0.00,178.0,meteohub,2013-11-18 21:32:00,
2013-11-18 13:37:00,59.5,46.2,30.08,SW,220,6.0,7.0,60,0.00,,,0.00,199.0,meteohub,2013-11-18 21:37:00,
2013-11-18 13:42:00,59.5,46.2,30.08,WSW,244,2.0,9.0,60,0.00,,,0.00,220.0,meteohub,2013-11-18 21:42:00,
2013-11-18 13:47:00,59.4,46.6,30.08,SW,223,7.0,9.0,61,0.00,,,0.00,192.0,meteohub,2013-11-18 21:47:00,
2013-11-18 13:52:00,59.4,46.9,30.08,SW,215,3.0,9.0,62,0.00,,,0.00,301.0,meteohub,2013-11-18 21:52:00,
2013-11-18 13:57:00,59.4,46.9,30.09,WSW,250,8.0,8.0,62,0.00,,,0.00,239.0,meteohub,2013-11-18 21:57:00,
2013-11-18 14:02:00,59.4,46.6,30.09,SW,232,1.0,12.0,61,0.00,,,0.00,232.0,meteohub,2013-11-18 22:02:00,
2013-11-18 14:07:00,59.4,46.9,30.09,SW,231,2.0,12.0,62,0.00,,,0.00,397.0,meteohub,2013-11-18 22:07:00,
2013-11-18 14:12:00,59.4,46.9,30.09,WSW,257,3.0,12.0,62,0.00,,,0.00,169.0,meteohub,2013-11-18 22:12:00,
2013-11-18 14:17:00,59.4,46.9,30.09,WSW,257,6.0,12.0,62,0.00,,,0.00,200.0,meteohub,2013-11-18 22:17:00,
2013-11-18 14:22:00,59.0,47.5,30.09,SW,226,0.0,11.0,64,0.00,,,0.00,221.0,meteohub,2013-11-18 22:22:00,
2013-11-18 14:27:00,59.0,47.5,30.09,WNW,287,3.0,10.0,64,0.00,,,0.00,258.0,meteohub,2013-11-18 22:27:00,
2013-11-18 14:32:00,58.6,47.1,30.08,West,280,1.0,11.0,64,0.00,,,0.00,165.0,meteohub,2013-11-18 22:32:00,
2013-11-18 14:37:00,58.6,47.1,30.09,West,281,1.0,11.0,64,0.00,,,0.00,156.0,meteohub,2013-11-18 22:37:00,
2013-11-18 14:42:00,58.3,47.1,30.09,SW,226,4.0,11.0,65,0.00,,,0.00,158.0,meteohub,2013-11-18 22:42:00,
2013-11-18 14:47:00,58.3,47.1,30.08,West,279,5.0,11.0,65,0.00,,,0.00,151.0,meteohub,2013-11-18 22:47:00,
2013-11-18 14:52:00,58.1,46.9,30.08,West,271,6.0,11.0,65,0.00,,,0.00,132.0,meteohub,2013-11-18 22:52:00,
2013-11-18 14:57:00,57.7,47.1,30.08,West,266,5.0,12.0,66,0.00,,,0.00,102.0,meteohub,2013-11-18 22:57:00,
2013-11-18 15:02:00,57.6,47.3,30.08,SW,223,3.0,12.0,67,0.00,,,0.00,111.0,meteohub,2013-11-18 23:02:00,
2013-11-18 15:07:00,57.6,47.3,30.08,SW,235,4.0,11.0,67,0.00,,,0.00,121.0,meteohub,2013-11-18 23:07:00,
2013-11-18 15:12:00,57.6,47.3,30.08,WNW,288,0.0,9.0,67,0.00,,,0.00,132.0,meteohub,2013-11-18 23:12:00,
2013-11-18 15:17:00,57.6,47.3,30.08,SW,225,1.0,8.0,67,0.00,,,0.00,114.0,meteohub,2013-11-18 23:17:00,
2013-11-18 15:22:00,57.6,47.3,30.08,WNW,283,3.0,8.0,67,0.00,,,0.00,81.0,meteohub,2013-11-18 23:22:00,
2013-11-18 15:27:00,57.6,47.3,30.08,West,263,0.0,8.0,67,0.00,,,0.00,93.0,meteohub,2013-11-18 23:27:00,
2013-11-18 15:32:00,57.6,47.1,30.08,West,262,1.0,9.0,67,0.00,,,0.00,90.0,meteohub,2013-11-18 23:32:00,
2013-11-18 15:37:00,57.6,47.5,30.09,West,278,5.0,9.0,68,0.00,,,0.00,207.0,meteohub,2013-11-18 23:37:00,
2013-11-18 15:42:00,57.6,47.5,30.09,NNW,331,7.0,10.0,68,0.00,,,0.00,202.0,meteohub,2013-11-18 23:42:00,
2013-11-18 15:47:00,57.4,47.3,30.09,West,279,7.0,11.0,68,0.00,,,0.00,132.0,meteohub,2013-11-18 23:47:00,
2013-11-18 15:52:00,57.0,46.9,30.08,West,267,0.0,12.0,68,0.00,,,0.00,49.0,meteohub,2013-11-18 23:52:00,
2013-11-18 15:57:00,57.0,47.3,30.08,WNW,284,0.0,12.0,69,0.00,,,0.00,37.0,meteohub,2013-11-18 23:57:00,
2013-11-18 16:02:00,56.8,47.5,30.08,WNW,282,2.0,12.0,70,0.00,,,0.00,49.0,meteohub,2013-11-19 00:02:00,
2013-11-18 16:07:00,56.7,47.3,30.08,West,269,4.0,5.0,70,0.00,,,0.00,49.0,meteohub,2013-11-19 00:07:00,
2013-11-18 16:12:00,56.5,47.7,30.07,West,269,2.0,7.0,71,0.00,,,0.00,46.0,meteohub,2013-11-19 00:12:00,
2013-11-18 16:17:00,56.5,47.7,30.08,SW,231,2.0,7.0,71,0.00,,,0.00,39.0,meteohub,2013-11-19 00:17:00,
2013-11-18 16:22:00,56.3,47.1,30.08,SW,219,4.0,7.0,70,0.00,,,0.00,44.0,meteohub,2013-11-19 00:22:00,
2013-11-18 16:27:00,56.1,46.9,30.08,SW,231,0.0,6.0,70,0.00,,,0.00,37.0,meteohub,2013-11-19 00:27:00,
2013-11-18 16:32:00,56.1,46.9,30.08,SW,232,0.0,6.0,70,0.00,,,0.00,30.0,meteohub,2013-11-19 00:32:00,
2013-11-18 16:37:00,55.9,46.8,30.08,West,264,1.0,4.0,70,0.00,,,0.00,26.0,meteohub,2013-11-19 00:37:00,
2013-11-18 16:42:00,55.8,46.9,30.08,West,264,3.0,5.0,71,0.00,,,0.00,19.0,meteohub,2013-11-19 00:42:00,
2013-11-18 16:47:00,55.6,46.8,30.09,West,273,2.0,5.0,71,0.00,,,0.00,11.0,meteohub,2013-11-19 00:47:00,
2013-11-18 16:52:00,55.6,46.8,30.09,West,267,6.0,6.0,71,0.00,,,0.00,5.0,meteohub,2013-11-19 00:52:00,
2013-11-18 16:57:00,55.2,46.8,30.09,WSW,252,1.0,7.0,72,0.00,,,0.00,0.0,meteohub,2013-11-19 00:57:00,
2013-11-18 17:02:00,55.0,46.9,30.09,West,263,5.0,10.0,73,0.00,,,0.00,0.0,meteohub,2013-11-19 01:02:00,
2013-11-18 17:07:00,54.9,47.1,30.10,West,263,3.0,10.0,74,0.00,,,0.00,0.0,meteohub,2013-11-19 01:07:00,
2013-11-18 17:12:00,54.7,46.9,30.09,WNW,284,4.0,7.0,74,0.00,,,0.00,0.0,meteohub,2013-11-19 01:12:00,
2013-11-18 17:17:00,54.5,47.1,30.09,West,269,7.0,7.0,75,0.00,,,0.00,0.0,meteohub,2013-11-19 01:17:00,
2013-11-18 17:22:00,54.3,47.3,30.09,West,271,3.0,8.0,76,0.00,,,0.00,0.0,meteohub,2013-11-19 01:22:00,
2013-11-18 17:27:00,54.1,47.1,30.10,WSW,254,2.0,8.0,76,0.00,,,0.00,0.0,meteohub,2013-11-19 01:27:00,
2013-11-18 17:32:00,54.0,47.3,30.09,WSW,246,0.0,8.0,77,0.00,,,0.00,0.0,meteohub,2013-11-19 01:32:00,
2013-11-18 17:37:00,54.0,47.3,30.09,West,259,1.0,7.0,77,0.00,,,0.00,0.0,meteohub,2013-11-19 01:37:00,
2013-11-18 17:42:00,53.8,47.5,30.09,WSW,251,3.0,5.0,78,0.00,,,0.00,0.0,meteohub,2013-11-19 01:42:00,
2013-11-18 17:44:00,53.6,47.3,30.09,West,265,3.0,5.0,78,0.00,,,0.00,0.0,meteohub,2013-11-19 01:44:00,
2013-11-18 17:49:00,53.4,47.1,30.09,WSW,252,3.0,8.0,78,0.00,,,0.00,0.0,meteohub,2013-11-19 01:49:00,
2013-11-18 17:54:00,53.2,47.3,30.09,West,277,3.0,8.0,79,0.00,,,0.00,0.0,meteohub,2013-11-19 01:54:00,
2013-11-18 17:59:00,53.2,47.3,30.09,West,272,3.0,10.0,79,0.00,,,0.00,0.0,meteohub,2013-11-19 01:59:00,
2013-11-18 18:05:00,53.2,47.1,30.09,West,281,1.0,10.0,79,0.00,,,0.00,0.0,meteohub,2013-11-19 02:05:00,
2013-11-18 18:10:00,53.2,47.1,30.10,West,262,4.0,9.0,79,0.00,,,0.00,0.0,meteohub,2013-11-19 02:10:00,
2013-11-18 18:15:00,53.1,47.3,30.09,West,279,3.0,7.0,80,0.00,,,0.00,0.0,meteohub,2013-11-19 02:15:00,
2013-11-18 18:20:00,53.1,47.3,30.10,West,263,4.0,9.0,80,0.00,,,0.00,0.0,meteohub,2013-11-19 02:20:00,
2013-11-18 18:25:00,52.9,47.1,30.10,West,274,3.0,9.0,80,0.00,,,0.00,0.0,meteohub,2013-11-19 02:25:00,
2013-11-18 18:30:00,52.7,46.9,30.10,West,265,3.0,8.0,80,0.00,,,0.00,0.0,meteohub,2013-11-19 02:30:00,
2013-11-18 18:35:00,52.7,46.9,30.10,West,281,3.0,7.0,80,0.00,,,0.00,0.0,meteohub,2013-11-19 02:35:00,
2013-11-18 18:41:00,52.7,47.3,30.10,WNW,291,1.0,6.0,81,0.00,,,0.00,0.0,meteohub,2013-11-19 02:41:00,
2013-11-18 18:46:00,52.5,46.8,30.10,WNW,298,0.0,6.0,80,0.00,,,0.00,0.0,meteohub,2013-11-19 02:46:00,
2013-11-18 18:51:00,52.5,47.1,30.11,WNW,298,0.0,5.0,81,0.00,,,0.00,0.0,meteohub,2013-11-19 02:51:00,
2013-11-18 18:56:00,52.5,47.1,30.11,WNW,298,0.0,5.0,81,0.00,,,0.00,0.0,meteohub,2013-11-19 02:56:00,
2013-11-18 19:01:00,52.3,46.9,30.11,WNW,298,0.0,2.0,81,0.00,,,0.00,0.0,meteohub,2013-11-19 03:01:00,
2013-11-18 19:06:00,52.3,46.9,30.11,WNW,298,1.0,3.0,81,0.00,,,0.00,0.0,meteohub,2013-11-19 03:06:00,
2013-11-18 19:11:00,52.3,46.9,30.11,West,262,3.0,5.0,81,0.00,,,0.00,0.0,meteohub,2013-11-19 03:11:00,
2013-11-18 19:17:00,52.3,47.3,30.11,West,262,0.0,5.0,82,0.00,,,0.00,0.0,meteohub,2013-11-19 03:17:00,
2013-11-18 19:22:00,52.3,47.3,30.10,West,262,0.0,5.0,82,0.00,,,0.00,0.0,meteohub,2013-11-19 03:22:00,
2013-11-18 19:27:00,52.2,47.1,30.10,West,279,4.0,4.0,82,0.00,,,0.00,0.0,meteohub,2013-11-19 03:27:00,
2013-11-18 19:32:00,52.2,47.1,30.11,West,280,0.0,7.0,82,0.00,,,0.00,0.0,meteohub,2013-11-19 03:32:00,
2013-11-18 19:37:00,52.2,47.1,30.11,NW,325,0.0,7.0,82,0.00,,,0.00,0.0,meteohub,2013-11-19 03:37:00,
2013-11-18 19:42:00,52.2,47.3,30.11,NW,325,0.0,7.0,83,0.00,,,0.00,0.0,meteohub,2013-11-19 03:42:00,
2013-11-18 19:47:00,52.0,46.9,30.11,North,355,0.0,3.0,82,0.00,,,0.00,0.0,meteohub,2013-11-19 03:47:00,
2013-11-18 19:52:00,52.0,47.1,30.11,North,355,0.0,3.0,83,0.00,,,0.00,0.0,meteohub,2013-11-19 03:52:00,
2013-11-18 19:57:00,51.8,46.9,30.11,North,355,0.0,3.0,83,0.00,,,0.00,0.0,meteohub,2013-11-19 03:57:00,
2013-11-18 20:02:00,51.8,46.9,30.10,North,355,0.0,3.0,83,0.00,,,0.00,0.0,meteohub,2013-11-19 04:02:00,
2013-11-18 20:07:00,51.6,46.8,30.11,North,355,0.0,2.0,83,0.00,,,0.00,0.0,meteohub,2013-11-19 04:07:00,
2013-11-18 20:08:00,51.6,46.8,30.11,North,355,0.0,2.0,83,0.00,,,0.00,0.0,meteohub,2013-11-19 04:08:00,
2013-11-18 20:13:00,51.4,46.6,30.11,North,355,0.0,2.0,83,0.00,,,0.00,0.0,meteohub,2013-11-19 04:13:00,
2013-11-18 20:18:00,51.3,46.4,30.11,North,355,0.0,1.0,83,0.00,,,0.00,0.0,meteohub,2013-11-19 04:18:00,
2013-11-18 20:23:00,51.3,46.8,30.10,North,355,0.0,2.0,84,0.00,,,0.00,0.0,meteohub,2013-11-19 04:23:00,
2013-11-18 20:28:00,51.3,46.8,30.10,North,355,0.0,2.0,84,0.00,,,0.00,0.0,meteohub,2013-11-19 04:28:00,
2013-11-18 20:33:00,51.1,46.9,30.10,North,355,2.0,2.0,85,0.00,,,0.00,0.0,meteohub,2013-11-19 04:33:00,
2013-11-18 20:38:00,51.1,46.9,30.10,North,355,0.0,2.0,85,0.00,,,0.00,0.0,meteohub,2013-11-19 04:38:00,
2013-11-18 20:43:00,51.1,46.9,30.11,North,355,0.0,2.0,85,0.00,,,0.00,0.0,meteohub,2013-11-19 04:43:00,
2013-11-18 20:49:00,51.1,46.9,30.12,North,355,0.0,2.0,85,0.00,,,0.00,0.0,meteohub,2013-11-19 04:49:00,
2013-11-18 20:54:00,51.1,46.9,30.12,North,355,0.0,1.0,85,0.00,,,0.00,0.0,meteohub,2013-11-19 04:54:00,
2013-11-18 20:59:00,51.1,46.9,30.12,North,355,0.0,1.0,85,0.00,,,0.00,0.0,meteohub,2013-11-19 04:59:00,
2013-11-18 21:01:00,51.1,46.9,30.12,North,355,0.0,2.0,85,0.00,,,0.00,0.0,meteohub,2013-11-19 05:01:00,
2013-11-18 21:02:00,50.9,46.8,30.12,North,355,0.0,2.0,85,0.00,,,0.00,0.0,meteohub,2013-11-19 05:02:00,
2013-11-18 21:05:00,50.9,46.8,30.12,North,355,0.0,2.0,85,0.00,,,0.00,0.0,meteohub,2013-11-19 05:05:00,
2013-11-18 21:11:00,50.9,46.8,30.12,North,355,0.0,2.0,85,0.00,,,0.00,0.0,meteohub,2013-11-19 05:11:00,
2013-11-18 21:16:00,50.9,47.1,30.12,North,355,2.0,2.0,86,0.00,,,0.00,0.0,meteohub,2013-11-19 05:16:00,
2013-11-18 21:21:00,50.9,47.3,30.12,WSW,254,2.0,3.0,87,0.00,,,0.00,0.0,meteohub,2013-11-19 05:21:00,
2013-11-18 21:26:00,51.1,47.5,30.12,WSW,245,1.0,4.0,87,0.00,,,0.00,0.0,meteohub,2013-11-19 05:26:00,
2013-11-18 21:31:00,51.1,47.3,30.12,WSW,242,0.0,4.0,86,0.00,,,0.00,0.0,meteohub,2013-11-19 05:31:00,
2013-11-18 21:36:00,51.1,47.3,30.12,WSW,242,0.0,4.0,86,0.00,,,0.00,0.0,meteohub,2013-11-19 05:36:00,
2013-11-18 21:41:00,51.1,47.3,30.11,WSW,242,0.0,2.0,86,0.00,,,0.00,0.0,meteohub,2013-11-19 05:41:00,
2013-11-18 21:47:00,50.9,47.1,30.11,WSW,242,0.0,1.0,86,0.00,,,0.00,0.0,meteohub,2013-11-19 05:47:00,
2013-11-18 21:52:00,50.7,46.9,30.11,WSW,242,0.0,1.0,86,0.00,,,0.00,0.0,meteohub,2013-11-19 05:52:00,
2013-11-18 21:57:00,50.7,46.9,30.11,WSW,242,0.0,2.0,86,0.00,,,0.00,0.0,meteohub,2013-11-19 05:57:00,
2013-11-18 22:02:00,50.5,46.8,30.11,WSW,242,0.0,2.0,86,0.00,,,0.00,0.0,meteohub,2013-11-19 06:02:00,
2013-11-18 22:07:00,50.5,46.8,30.11,SW,219,0.0,4.0,86,0.00,,,0.00,0.0,meteohub,2013-11-19 06:07:00,
2013-11-18 22:12:00,50.4,46.8,30.11,SW,219,0.0,4.0,87,0.00,,,0.00,0.0,meteohub,2013-11-19 06:12:00,
2013-11-18 22:17:00,50.4,46.8,30.11,SW,219,1.0,4.0,87,0.00,,,0.00,0.0,meteohub,2013-11-19 06:17:00,
2013-11-18 22:22:00,50.0,46.2,30.11,SW,219,0.0,3.0,86,0.00,,,0.00,0.0,meteohub,2013-11-19 06:22:00,
2013-11-18 22:27:00,49.8,46.0,30.11,SW,219,0.0,3.0,86,0.00,,,0.00,0.0,meteohub,2013-11-19 06:27:00,
2013-11-18 22:32:00,49.8,46.2,30.11,SW,219,0.0,2.0,87,0.00,,,0.00,0.0,meteohub,2013-11-19 06:32:00,
2013-11-18 22:37:00,49.6,46.0,30.10,SW,219,0.0,2.0,87,0.00,,,0.00,0.0,meteohub,2013-11-19 06:37:00,
2013-11-18 22:42:00,49.5,46.0,30.10,SW,219,0.0,1.0,87,0.00,,,0.00,0.0,meteohub,2013-11-19 06:42:00,
2013-11-18 22:47:00,49.3,45.5,30.09,SW,219,1.0,2.0,86,0.00,,,0.00,0.0,meteohub,2013-11-19 06:47:00,
2013-11-18 22:52:00,49.1,45.7,30.10,SW,219,0.0,2.0,87,0.00,,,0.00,0.0,meteohub,2013-11-19 06:52:00,
2013-11-18 22:57:00,48.9,45.5,30.10,SW,219,0.0,2.0,87,0.00,,,0.00,0.0,meteohub,2013-11-19 06:57:00,
2013-11-18 23:02:00,48.9,45.3,30.11,SW,219,0.0,2.0,87,0.00,,,0.00,0.0,meteohub,2013-11-19 07:02:00,
2013-11-18 23:07:00,48.7,45.1,30.10,SW,219,0.0,1.0,87,0.00,,,0.00,0.0,meteohub,2013-11-19 07:07:00,
2013-11-18 23:12:00,48.6,45.0,30.11,SW,219,0.0,1.0,87,0.00,,,0.00,0.0,meteohub,2013-11-19 07:12:00,
2013-11-18 23:17:00,48.4,45.0,30.11,SW,219,0.0,1.0,88,0.00,,,0.00,0.0,meteohub,2013-11-19 07:17:00,
2013-11-18 23:22:00,48.2,44.6,30.11,SW,219,1.0,2.0,87,0.00,,,0.00,0.0,meteohub,2013-11-19 07:22:00,
2013-11-18 23:27:00,48.0,44.6,30.11,SW,223,1.0,2.0,87,0.00,,,0.00,0.0,meteohub,2013-11-19 07:27:00,
2013-11-18 23:32:00,47.8,44.4,30.11,SW,223,0.0,3.0,87,0.00,,,0.00,0.0,meteohub,2013-11-19 07:32:00,
2013-11-18 23:37:00,47.8,44.6,30.11,SW,223,0.0,3.0,88,0.00,,,0.00,0.0,meteohub,2013-11-19 07:37:00,
2013-11-18 23:42:00,47.8,44.6,30.10,WSW,245,3.0,3.0,88,0.00,,,0.00,0.0,meteohub,2013-11-19 07:42:00,
2013-11-18 23:47:00,47.8,44.8,30.10,NNW,346,1.0,3.0,89,0.00,,,0.00,0.0,meteohub,2013-11-19 07:47:00,
2013-11-18 23:52:00,47.7,44.6,30.10,NNW,345,0.0,3.0,89,0.00,,,0.00,0.0,meteohub,2013-11-19 07:52:00,
2013-11-18 23:57:00,47.7,44.6,30.10,NNW,346,0.0,3.0,89,0.00,,,0.00,0.0,meteohub,2013-11-19 07:57:00,